Time;durP1;ratioP1;P1;durP2;ratioP2;P2;SDS_P1;SDS_P2;PMS_P1;PMS_P2;Temp;Humidity;BMP_temperature;BMP_pressure;BME280_temperature;BME280_humidity;BME280_pressure;Samples;Min_cycle;Max_cycle;Signal;HPM_P1;HPM_P2
2022/07/16 00:02:17;;;;;;;5.60;2.42;;;26.80;89.00;;;;;;5013460;28;20081;-68
2022/07/16 00:04:44;;;;;;;3.42;2.30;;;26.80;89.00;;;;;;5031034;28;20499;-67
2022/07/16 00:07:12;;;;;;;4.18;2.70;;;26.80;89.00;;;;;;5031295;28;20068;-67
2022/07/16 00:09:40;;;;;;;5.32;2.17;;;26.80;89.00;;;;;;5030958;28;20051;-67
2022/07/16 00:12:07;;;;;;;3.80;2.40;;;26.70;89.00;;;;;;5029853;28;20202;-77
2022/07/16 00:14:35;;;;;;;5.03;2.30;;;26.70;89.10;;;;;;5013858;28;20049;-69
2022/07/16 00:17:03;;;;;;;5.50;2.92;;;26.70;89.20;;;;;;5030913;28;20087;-67
2022/07/16 00:19:30;;;;;;;3.55;2.08;;;26.70;89.20;;;;;;5013585;28;20368;-66
2022/07/16 00:21:58;;;;;;;2.72;1.95;;;26.70;89.30;;;;;;5029678;28;20049;-67
2022/07/16 00:24:26;;;;;;;4.25;2.63;;;26.70;89.40;;;;;;5029429;28;20057;-67
2022/07/16 00:26:54;;;;;;;3.35;2.13;;;26.60;89.30;;;;;;5029878;28;20051;-67
2022/07/16 00:29:22;;;;;;;5.05;2.53;;;26.60;89.40;;;;;;4996601;28;20061;-67
2022/07/16 00:31:51;;;;;;;5.97;2.22;;;26.60;89.40;;;;;;5029343;28;20127;-67
2022/07/16 00:34:19;;;;;;;3.85;2.63;;;26.60;89.40;;;;;;5012617;28;20419;-66
2022/07/16 00:36:47;;;;;;;3.08;2.30;;;26.60;89.50;;;;;;5029435;28;20065;-67
2022/07/16 00:39:16;;;;;;;4.20;3.10;;;26.60;89.70;;;;;;5029636;28;20065;-66
2022/07/16 00:41:46;;;;;;;3.30;2.08;;;26.60;89.80;;;;;;5029712;28;20467;-66
2022/07/16 00:44:16;;;;;;;5.68;2.13;;;26.50;89.80;;;;;;5029123;28;20073;-69
2022/07/16 00:46:45;;;;;;;4.75;2.20;;;26.50;89.90;;;;;;5029325;28;20539;-67
2022/07/16 00:49:14;;;;;;;4.05;2.40;;;26.50;90.00;;;;;;5029264;28;20394;-66
2022/07/16 00:51:45;;;;;;;3.30;2.15;;;26.50;90.00;;;;;;5029470;28;20052;-69
2022/07/16 00:54:13;;;;;;;3.30;2.15;;;26.50;90.00;;;;;;5012397;28;20041;-70
2022/07/16 00:56:41;;;;;;;7.97;2.90;;;26.50;90.00;;;;;;5012790;28;20498;-67
2022/07/16 00:59:09;;;;;;;2.97;2.08;;;26.50;90.00;;;;;;5013077;28;20053;-66
2022/07/16 01:01:36;;;;;;;3.53;1.98;;;26.50;90.00;;;;;;5028680;28;20702;-68
2022/07/16 01:04:04;;;;;;;2.92;1.98;;;26.40;90.00;;;;;;5013063;28;20128;-68
2022/07/16 01:06:32;;;;;;;4.03;2.78;;;26.40;90.00;;;;;;5012995;28;20048;-68
2022/07/16 01:09:00;;;;;;;3.42;2.13;;;26.40;90.00;;;;;;5013260;28;20545;-69
2022/07/16 01:11:30;;;;;;;2.92;1.70;;;26.40;90.00;;;;;;5029270;28;20392;-68
2022/07/16 01:13:58;;;;;;;4.00;1.88;;;26.40;90.00;;;;;;5029213;28;20488;-67
2022/07/16 01:16:26;;;;;;;4.10;2.22;;;26.40;89.90;;;;;;5029900;28;20049;-67
2022/07/16 01:18:54;;;;;;;5.47;2.63;;;26.40;89.80;;;;;;5028777;28;20068;-67
2022/07/16 01:21:21;;;;;;;2.88;2.10;;;26.30;89.70;;;;;;5028927;28;20041;-67
2022/07/16 01:23:49;;;;;;;5.45;3.05;;;26.40;89.70;;;;;;5029102;28;20491;-67
2022/07/16 01:26:17;;;;;;;3.65;2.38;;;26.40;89.60;;;;;;5012035;28;20578;-69
2022/07/16 01:28:44;;;;;;;2.40;1.80;;;26.30;89.50;;;;;;5013031;28;20053;-69
2022/07/16 01:31:12;;;;;;;6.13;2.78;;;26.40;89.50;;;;;;5028770;28;20061;-66
2022/07/16 01:33:41;;;;;;;3.05;1.90;;;26.30;89.40;;;;;;5030127;28;20550;-68
2022/07/16 01:36:14;;;;;;;3.92;2.13;;;26.30;89.50;;;;;;5030253;28;20057;-67
2022/07/16 01:38:44;;;;;;;3.75;2.20;;;26.40;89.50;;;;;;5030517;28;20503;-67
2022/07/16 01:41:13;;;;;;;3.25;2.35;;;26.30;89.50;;;;;;5028881;28;20522;-66
2022/07/16 01:43:41;;;;;;;3.85;2.75;;;26.30;89.60;;;;;;5028545;28;20582;-68
2022/07/16 01:46:08;;;;;;;4.00;2.38;;;26.30;89.60;;;;;;5028343;28;20056;-69
2022/07/16 01:48:36;;;;;;;4.88;3.05;;;26.30;89.60;;;;;;5029167;28;20132;-67
2022/07/16 01:51:04;;;;;;;3.63;2.42;;;26.30;89.60;;;;;;5029009;28;20053;-69
2022/07/16 01:53:31;;;;;;;2.90;2.17;;;26.30;89.60;;;;;;5028676;28;20152;-69
2022/07/16 01:56:00;;;;;;;5.13;2.50;;;26.20;89.50;;;;;;5030162;28;20132;-68
2022/07/16 01:58:29;;;;;;;4.28;2.58;;;26.30;89.60;;;;;;5012775;28;20183;-69
2022/07/16 02:00:57;;;;;;;5.25;2.45;;;26.20;89.50;;;;;;5028885;28;20049;-68
2022/07/16 02:03:24;;;;;;;4.18;2.33;;;26.20;89.50;;;;;;4996213;28;20080;-67
2022/07/16 02:05:52;;;;;;;4.88;2.63;;;26.20;89.50;;;;;;5012481;28;20049;-67
2022/07/16 02:08:20;;;;;;;4.55;2.75;;;26.20;89.50;;;;;;5029559;28;20049;-69
2022/07/16 02:10:47;;;;;;;2.97;2.20;;;26.20;89.50;;;;;;5028919;28;20073;-67
2022/07/16 02:13:15;;;;;;;3.05;2.10;;;26.20;89.50;;;;;;5012631;28;20049;-67
2022/07/16 02:15:43;;;;;;;4.22;2.50;;;26.20;89.40;;;;;;5032110;28;20048;-68
2022/07/16 02:18:11;;;;;;;3.75;2.05;;;26.20;89.50;;;;;;5032139;28;20060;-69
2022/07/16 02:20:38;;;;;;;2.78;2.00;;;26.20;89.50;;;;;;5016032;28;20077;-67
2022/07/16 02:23:06;;;;;;;2.88;1.90;;;26.10;89.50;;;;;;5032164;28;20049;-67
2022/07/16 02:25:34;;;;;;;5.03;1.90;;;26.10;89.50;;;;;;5031587;28;20050;-67
2022/07/16 02:28:07;;;;;;;6.97;3.45;;;26.10;89.50;;;;;;5032060;28;20038;-67
2022/07/16 02:30:55;;;;;;;3.80;2.20;;;26.10;89.50;;;;;;4999163;28;20517;-69
2022/07/16 02:33:22;;;;;;;3.35;1.83;;;26.10;89.50;;;;;;5015508;28;20183;-69
2022/07/16 02:35:50;;;;;;;2.95;1.67;;;26.00;89.40;;;;;;5033261;28;20073;-67
2022/07/16 02:38:17;;;;;;;2.58;1.73;;;26.00;89.40;;;;;;5031517;28;20068;-67
2022/07/16 02:40:45;;;;;;;3.47;1.92;;;26.00;89.40;;;;;;5033093;28;20369;-67
2022/07/16 02:43:13;;;;;;;5.22;1.98;;;25.90;89.30;;;;;;5032515;28;20045;-67
2022/07/16 02:45:42;;;;;;;4.95;1.90;;;25.90;89.50;;;;;;5015413;28;20058;-69
2022/07/16 02:48:11;;;;;;;2.83;1.98;;;25.90;89.40;;;;;;5031436;28;20068;-67
2022/07/16 02:50:39;;;;;;;6.00;1.92;;;25.90;89.30;;;;;;5031793;28;20045;-69
2022/07/16 02:53:07;;;;;;;3.45;2.08;;;25.90;89.30;;;;;;5015026;28;20054;-67
2022/07/16 02:55:35;;;;;;;2.78;1.80;;;25.90;89.30;;;;;;5031603;28;20050;-68
2022/07/16 02:58:03;;;;;;;3.25;1.75;;;25.90;89.20;;;;;;5015687;28;20085;-67
2022/07/16 03:00:31;;;;;;;3.60;2.20;;;25.90;89.10;;;;;;5014708;28;20171;-67
2022/07/16 03:02:59;;;;;;;3.67;2.30;;;25.90;89.20;;;;;;5031290;28;20510;-68
2022/07/16 03:05:28;;;;;;;3.20;1.88;;;25.80;89.10;;;;;;5014792;28;20087;-68
2022/07/16 03:07:55;;;;;;;2.22;1.55;;;25.80;89.10;;;;;;5031196;28;20053;-67
2022/07/16 03:10:23;;;;;;;3.28;1.80;;;25.90;89.20;;;;;;5031120;28;20037;-67
2022/07/16 03:12:51;;;;;;;3.20;1.77;;;25.80;89.20;;;;;;4998335;28;20147;-67
2022/07/16 03:15:18;;;;;;;2.60;1.75;;;25.80;89.20;;;;;;5031065;28;20497;-70
2022/07/16 03:17:46;;;;;;;2.90;1.40;;;25.70;89.10;;;;;;5031128;28;20049;-67
2022/07/16 03:20:13;;;;;;;3.20;1.67;;;25.70;89.10;;;;;;5014572;28;20050;-67
2022/07/16 03:22:47;;;;;;;3.10;1.92;;;25.70;89.10;;;;;;5032228;28;20099;-67
2022/07/16 03:25:16;;;;;;;2.70;1.58;;;25.60;89.10;;;;;;4997912;28;20525;-67
2022/07/16 03:27:44;;;;;;;3.63;1.77;;;25.70;89.10;;;;;;5030834;28;20045;-68
2022/07/16 03:30:13;;;;;;;3.97;2.38;;;25.70;89.00;;;;;;5014256;28;20407;-69
2022/07/16 03:32:41;;;;;;;4.22;2.00;;;25.70;88.90;;;;;;5030810;28;20073;-69
2022/07/16 03:35:10;;;;;;;4.47;1.80;;;25.60;88.80;;;;;;5014224;28;20143;-66
2022/07/16 03:38:57;;;;;;;4.57;2.03;;;25.60;88.70;;;;;;5014049;28;20057;-67
2022/07/16 03:40:27;;;;;;;3.67;1.80;;;25.70;88.50;;;;;;5029965;28;20126;-67
2022/07/16 03:42:56;;;;;;;9.15;2.20;;;25.70;88.50;;;;;;5030132;28;20132;-68
2022/07/16 03:45:23;;;;;;;4.63;2.00;;;25.70;88.50;;;;;;5031515;28;20060;-67
2022/07/16 03:47:51;;;;;;;2.83;1.50;;;25.70;88.20;;;;;;5030342;28;20072;-67
2022/07/16 03:50:19;;;;;;;3.85;2.05;;;25.70;87.90;;;;;;5029912;28;20049;-67
2022/07/16 03:52:47;;;;;;;2.47;1.88;;;25.80;87.50;;;;;;5014061;28;20052;-68
2022/07/16 03:55:15;;;;;;;4.75;1.83;;;25.80;86.60;;;;;;5030539;28;20057;-66
2022/07/16 03:57:43;;;;;;;3.97;2.20;;;25.90;86.10;;;;;;5030185;28;20403;-69
2022/07/16 04:00:12;;;;;;;3.25;2.20;;;25.90;85.50;;;;;;5030076;28;20297;-66
2022/07/16 04:02:40;;;;;;;5.25;2.67;;;26.00;85.00;;;;;;5030009;28;20092;-68
2022/07/16 04:05:08;;;;;;;4.20;2.20;;;26.10;84.70;;;;;;4997573;28;20060;-68
2022/07/16 04:07:35;;;;;;;3.03;1.80;;;26.20;84.50;;;;;;5030952;28;20044;-67
2022/07/16 04:10:04;;;;;;;4.22;2.00;;;26.20;84.00;;;;;;5030372;28;20053;-67
2022/07/16 04:12:32;;;;;;;2.50;1.73;;;26.30;83.40;;;;;;5013545;28;20103;-67
2022/07/16 04:15:00;;;;;;;3.53;1.90;;;26.30;82.80;;;;;;5030062;28;20080;-67
2022/07/16 04:17:28;;;;;;;3.00;1.95;;;26.40;82.70;;;;;;5029942;28;20645;-71
2022/07/16 04:19:56;;;;;;;2.70;1.75;;;26.50;82.50;;;;;;5013898;28;20096;-66
2022/07/16 04:22:23;;;;;;;2.55;1.88;;;26.60;82.10;;;;;;5029562;28;20052;-67
2022/07/16 04:24:51;;;;;;;4.65;2.97;;;26.60;81.80;;;;;;5015518;28;20056;-68
2022/07/16 04:27:18;;;;;;;2.38;1.83;;;26.70;81.70;;;;;;4983930;28;20050;-68
2022/07/16 04:29:46;;;;;;;3.50;1.95;;;26.80;81.40;;;;;;5005597;28;20108;-77
2022/07/16 04:32:14;;;;;;;3.83;2.15;;;26.90;81.30;;;;;;5020855;28;20672;-68
2022/07/16 04:34:41;;;;;;;4.32;2.10;;;27.00;81.10;;;;;;5020299;28;20149;-70
2022/07/16 04:37:09;;;;;;;4.93;2.20;;;27.10;80.90;;;;;;5028900;28;20057;-67
2022/07/16 04:39:37;;;;;;;3.75;1.90;;;27.20;80.60;;;;;;4961989;28;20060;-70
2022/07/16 04:42:04;;;;;;;4.13;2.10;;;27.30;80.50;;;;;;4981950;28;20069;-68
2022/07/16 04:44:32;;;;;;;4.85;2.30;;;27.40;80.20;;;;;;5020766;28;20047;-68
2022/07/16 04:46:59;;;;;;;3.33;2.28;;;27.50;80.20;;;;;;5012525;28;20484;-67
2022/07/16 04:49:27;;;;;;;2.45;1.70;;;27.60;79.80;;;;;;5009884;28;20100;-67
2022/07/16 04:51:54;;;;;;;3.38;2.30;;;27.70;79.50;;;;;;5009551;28;20046;-69
2022/07/16 04:54:22;;;;;;;3.40;1.80;;;27.80;79.10;;;;;;5009314;28;20062;-67
2022/07/16 04:56:49;;;;;;;4.30;2.80;;;27.90;79.00;;;;;;5010682;28;20771;-67
2022/07/16 04:59:17;;;;;;;6.38;2.15;;;28.00;78.60;;;;;;4993379;28;20045;-71
2022/07/16 05:01:44;;;;;;;5.10;2.00;;;28.10;78.60;;;;;;4992804;28;20058;-67
2022/07/16 05:04:12;;;;;;;2.80;2.00;;;28.20;78.30;;;;;;5009260;28;20049;-69
2022/07/16 05:06:40;;;;;;;5.03;2.30;;;28.30;78.30;;;;;;4997925;28;20052;-67
2022/07/16 05:09:07;;;;;;;6.57;2.00;;;28.40;78.20;;;;;;5022440;28;20045;-67
2022/07/16 05:11:35;;;;;;;8.20;2.10;;;28.50;78.30;;;;;;5012858;28;20100;-69
2022/07/16 05:14:03;;;;;;;3.15;1.98;;;28.60;78.20;;;;;;5029045;28;20072;-71
2022/07/16 05:16:30;;;;;;;3.53;2.08;;;28.70;77.80;;;;;;5030314;28;20050;-67
2022/07/16 05:18:58;;;;;;;4.82;2.70;;;28.80;78.00;;;;;;5028903;28;20495;-67
2022/07/16 05:21:25;;;;;;;3.47;2.65;;;29.00;78.20;;;;;;5012877;28;20041;-68
2022/07/16 05:23:53;;;;;;;4.55;2.30;;;29.10;78.70;;;;;;5013009;28;20061;-69
2022/07/16 05:26:20;;;;;;;7.40;2.63;;;29.10;79.30;;;;;;5045298;28;20751;-67
2022/07/16 05:28:48;;;;;;;3.13;2.17;;;29.20;80.00;;;;;;5029085;28;20046;-68
2022/07/16 05:31:16;;;;;;;7.07;2.35;;;29.30;80.40;;;;;;5029634;28;20492;-70
2022/07/16 05:33:43;;;;;;;6.03;3.00;;;29.40;80.60;;;;;;5011439;28;20052;-66
2022/07/16 05:36:11;;;;;;;4.80;2.58;;;29.50;80.70;;;;;;5030229;28;20053;-69
2022/07/16 05:38:38;;;;;;;5.15;2.58;;;29.60;80.40;;;;;;5028888;28;20454;-67
2022/07/16 05:41:05;;;;;;;6.40;3.05;;;29.60;79.80;;;;;;5029857;28;20075;-67
2022/07/16 05:43:33;;;;;;;5.57;2.88;;;29.60;80.30;;;;;;5029992;28;20040;-67
2022/07/16 05:46:01;;;;;;;8.48;4.45;;;29.70;80.70;;;;;;5028673;28;20049;-71
2022/07/16 05:48:29;;;;;;;5.50;3.67;;;29.80;80.80;;;;;;5046356;28;20124;-68
2022/07/16 05:50:56;;;;;;;6.15;2.90;;;29.80;80.50;;;;;;5048976;28;20133;-67
2022/07/16 05:53:24;;;;;;;3.67;2.42;;;29.90;80.60;;;;;;5032698;28;20095;-66
2022/07/16 05:55:51;;;;;;;3.75;2.38;;;30.00;80.60;;;;;;5032678;28;20084;-68
2022/07/16 05:58:19;;;;;;;4.05;2.53;;;30.10;81.30;;;;;;5032327;28;20045;-68
2022/07/16 06:00:46;;;;;;;4.43;2.90;;;30.30;82.90;;;;;;5031795;28;20077;-68
2022/07/16 06:03:14;;;;;;;4.50;2.83;;;30.40;83.30;;;;;;5031859;28;20072;-68
2022/07/16 06:05:42;;;;;;;3.67;1.90;;;30.40;83.40;;;;;;5033567;28;20567;-71
2022/07/16 06:08:09;;;;;;;5.45;2.60;;;30.50;82.60;;;;;;5047615;28;20176;-66
2022/07/16 06:10:37;;;;;;;3.50;2.17;;;30.60;81.60;;;;;;5048558;28;20500;-67
2022/07/16 06:13:04;;;;;;;4.60;2.38;;;30.60;81.30;;;;;;5031675;28;20056;-69
2022/07/16 06:15:32;;;;;;;3.28;1.92;;;30.70;81.70;;;;;;5033335;28;20077;-67
2022/07/16 06:17:59;;;;;;;5.50;2.30;;;30.70;81.70;;;;;;5032108;28;20503;-67
2022/07/16 06:20:27;;;;;;;5.20;2.70;;;30.70;82.10;;;;;;5031246;28;20041;-67
2022/07/16 06:22:56;;;;;;;4.45;2.40;;;30.70;81.80;;;;;;5048671;28;20136;-69
2022/07/16 06:25:26;;;;;;;5.00;2.17;;;30.80;82.10;;;;;;5015921;28;20586;-67
2022/07/16 06:27:54;;;;;;;2.95;2.25;;;31.00;82.40;;;;;;5048093;28;20446;-66
2022/07/16 06:30:21;;;;;;;4.95;2.83;;;31.10;82.20;;;;;;5030882;28;20072;-74
2022/07/16 06:32:49;;;;;;;7.20;2.92;;;31.20;82.10;;;;;;5048278;28;20038;-67
2022/07/16 06:35:17;;;;;;;6.55;2.60;;;31.20;81.50;;;;;;5015274;28;20046;-69
2022/07/16 06:37:44;;;;;;;5.60;1.83;;;31.20;81.20;;;;;;5031978;28;20042;-67
2022/07/16 06:40:12;;;;;;;3.72;2.08;;;31.30;81.00;;;;;;5032767;28;20411;-67
2022/07/16 06:42:40;;;;;;;5.25;2.20;;;31.40;81.10;;;;;;5047784;28;20123;-66
2022/07/16 06:45:09;;;;;;;5.20;2.65;;;31.60;80.40;;;;;;5015669;28;20054;-69
2022/07/16 06:47:36;;;;;;;3.75;2.05;;;31.80;79.60;;;;;;5032603;28;20080;-69
2022/07/16 06:50:04;;;;;;;3.17;1.92;;;31.90;79.30;;;;;;5031383;28;20091;-68
2022/07/16 06:52:32;;;;;;;5.72;1.92;;;31.90;78.70;;;;;;5047722;28;20388;-68
2022/07/16 06:54:59;;;;;;;3.90;2.55;;;32.00;78.70;;;;;;5014878;28;20075;-68
2022/07/16 06:57:27;;;;;;;2.42;1.58;;;32.10;78.90;;;;;;5015025;28;20107;-67
2022/07/16 06:59:55;;;;;;;2.60;1.75;;;32.20;78.00;;;;;;5046691;28;20073;-67
2022/07/16 07:02:22;;;;;;;3.10;2.20;;;32.30;77.30;;;;;;5014590;28;20069;-69
2022/07/16 07:04:50;;;;;;;4.18;1.80;;;32.30;75.80;;;;;;5031391;28;20045;-69
2022/07/16 07:07:18;;;;;;;3.75;2.00;;;32.30;76.00;;;;;;5031558;28;20563;-69
2022/07/16 07:09:45;;;;;;;4.28;2.08;;;32.40;76.40;;;;;;5030938;28;20159;-67
2022/07/16 07:12:13;;;;;;;5.55;2.55;;;32.40;75.90;;;;;;5030892;28;20049;-68
2022/07/16 07:14:41;;;;;;;3.22;2.25;;;32.50;75.40;;;;;;5031922;28;20049;-67
2022/07/16 07:17:08;;;;;;;3.20;2.10;;;32.50;74.60;;;;;;5031778;28;20053;-68
2022/07/16 07:19:36;;;;;;;3.70;2.05;;;32.60;74.00;;;;;;5031244;28;20045;-67
2022/07/16 07:22:04;;;;;;;4.38;2.22;;;32.70;73.60;;;;;;5030045;28;20474;-68
2022/07/16 07:24:31;;;;;;;3.45;2.22;;;32.70;72.80;;;;;;5013779;28;20772;-66
2022/07/16 07:27:16;;;;;;;5.28;2.30;;;32.90;72.40;;;;;;5016415;28;20065;-70
2022/07/16 07:29:44;;;;;;;5.85;2.42;;;33.00;72.20;;;;;;5030732;28;20231;-66
2022/07/16 07:32:11;;;;;;;4.00;2.20;;;33.10;72.00;;;;;;5031703;28;20384;-69
2022/07/16 07:34:39;;;;;;;3.67;2.90;;;33.10;71.20;;;;;;5046976;28;20091;-67
2022/07/16 07:37:07;;;;;;;3.40;2.72;;;33.10;71.20;;;;;;5014215;28;20053;-67
2022/07/16 07:39:35;;;;;;;4.93;2.70;;;33.30;70.70;;;;;;5046768;28;20041;-67
2022/07/16 07:42:03;;;;;;;5.95;3.30;;;33.30;71.20;;;;;;5030396;28;20056;-67
2022/07/16 07:44:31;;;;;;;5.07;3.42;;;33.40;70.90;;;;;;5046638;28;20052;-66
2022/07/16 07:46:58;;;;;;;8.48;3.45;;;33.40;70.70;;;;;;5030184;28;20504;-68
2022/07/16 07:49:27;;;;;;;3.05;2.25;;;33.40;71.30;;;;;;5013938;28;20080;-70
2022/07/16 07:51:55;;;;;;;3.88;2.50;;;33.50;71.50;;;;;;5031184;28;20049;-67
2022/07/16 07:54:23;;;;;;;7.20;2.88;;;33.30;71.30;;;;;;5031323;28;20041;-67
2022/07/16 07:56:51;;;;;;;4.65;2.83;;;33.20;71.70;;;;;;5029731;28;20069;-71
2022/07/16 07:59:19;;;;;;;6.32;3.30;;;33.20;72.00;;;;;;5030379;28;20099;-68
2022/07/16 08:01:47;;;;;;;6.28;2.88;;;33.00;72.10;;;;;;5013896;28;20060;-68
2022/07/16 08:04:15;;;;;;;3.97;2.33;;;33.00;72.50;;;;;;5013194;28;20135;-67
2022/07/16 08:06:43;;;;;;;3.70;2.20;;;33.20;72.30;;;;;;5030011;28;20045;-68
2022/07/16 08:09:11;;;;;;;4.03;2.08;;;33.30;72.20;;;;;;5046399;28;20060;-67
2022/07/16 08:11:38;;;;;;;5.90;2.15;;;33.30;71.60;;;;;;5013743;28;20053;-67
2022/07/16 08:14:06;;;;;;;2.80;1.90;;;33.40;71.40;;;;;;5031242;28;20056;-67
2022/07/16 08:16:51;;;;;;;4.38;1.85;;;33.40;71.80;;;;;;5044002;28;20817;-67
2022/07/16 08:19:19;;;;;;;2.88;1.95;;;33.30;70.30;;;;;;5029758;28;20107;-68
2022/07/16 08:21:47;;;;;;;6.07;2.45;;;33.10;70.30;;;;;;5029936;28;20380;-68
2022/07/16 08:27:02;;;;;;;4.60;1.98;;;33.20;70.40;;;;;;5046175;28;20078;-67
2022/07/16 08:29:30;;;;;;;3.55;2.20;;;33.30;70.70;;;;;;5029352;28;20464;-68
2022/07/16 08:31:58;;;;;;;3.40;2.35;;;33.30;71.00;;;;;;5029551;28;20499;-67
2022/07/16 08:34:26;;;;;;;6.15;2.13;;;33.40;71.50;;;;;;5029089;28;20061;-68
2022/07/16 08:36:54;;;;;;;2.70;1.73;;;33.40;70.00;;;;;;5045680;28;20053;-69
2022/07/16 08:39:22;;;;;;;4.85;1.83;;;33.40;70.40;;;;;;5029442;28;20105;-69
2022/07/16 08:41:51;;;;;;;3.13;2.22;;;33.40;69.00;;;;;;5045997;28;20132;-66
2022/07/16 08:44:19;;;;;;;3.20;2.17;;;33.50;69.80;;;;;;5012946;28;20400;-68
2022/07/16 08:46:49;;;;;;;3.75;1.83;;;33.50;71.30;;;;;;5045509;28;20499;-68
2022/07/16 08:49:19;;;;;;;3.03;1.70;;;33.70;71.30;;;;;;5029143;28;20045;-67
2022/07/16 08:51:48;;;;;;;4.95;2.00;;;33.90;71.40;;;;;;5029664;28;20609;-67
2022/07/16 08:54:19;;;;;;;5.97;2.35;;;33.90;71.90;;;;;;5029100;28;20045;-68
2022/07/16 08:56:49;;;;;;;6.00;2.35;;;33.80;72.10;;;;;;5045709;28;20522;-67
2022/07/16 08:59:18;;;;;;;5.07;2.05;;;33.90;71.70;;;;;;5045521;28;20140;-67
2022/07/16 09:01:45;;;;;;;4.05;2.15;;;33.80;71.90;;;;;;5029098;28;20373;-67
2022/07/16 09:04:13;;;;;;;3.85;2.33;;;33.70;70.90;;;;;;5028916;28;20115;-67
2022/07/16 09:06:41;;;;;;;3.42;2.40;;;33.60;70.80;;;;;;5045273;28;20084;-69
2022/07/16 09:09:09;;;;;;;8.10;2.70;;;33.60;70.10;;;;;;5028657;28;20188;-66
2022/07/16 09:11:37;;;;;;;3.88;2.33;;;33.30;69.10;;;;;;5028822;28;20053;-68
2022/07/16 09:14:13;;;;;;;3.55;2.58;;;33.30;69.20;;;;;;5030458;28;20038;-66
2022/07/16 09:16:41;;;;;;;3.58;2.40;;;33.30;68.20;;;;;;5030512;28;20046;-67
2022/07/16 09:19:12;;;;;;;5.07;2.58;;;33.40;67.80;;;;;;5012695;28;20073;-68
2022/07/16 09:22:06;;;;;;;4.07;2.08;;;33.40;69.50;;;;;;5013224;28;20049;-66
2022/07/16 09:24:54;;;;;;;5.80;2.83;;;33.50;68.30;;;;;;5032488;28;20458;-68
2022/07/16 09:27:26;;;;;;;6.03;2.63;;;33.60;67.50;;;;;;5034094;28;20067;-67
2022/07/16 09:30:04;;;;;;;4.78;2.22;;;33.60;67.50;;;;;;5016531;28;20056;-66
2022/07/16 09:32:39;;;;;;;4.13;2.22;;;33.60;69.10;;;;;;5033652;28;20108;-69
2022/07/16 09:35:11;;;;;;;8.53;3.03;;;33.80;68.80;;;;;;5049261;28;20033;-66
2022/07/16 09:38:09;;;;;;;4.57;2.50;;;33.80;68.20;;;;;;5016624;28;20416;-67
2022/07/16 09:40:43;;;;;;;4.63;2.20;;;33.80;68.70;;;;;;5033047;28;20076;-67
2022/07/16 09:43:14;;;;;;;3.88;2.42;;;33.90;68.30;;;;;;5049473;28;20049;-67
2022/07/16 09:45:56;;;;;;;3.38;2.38;;;33.90;68.30;;;;;;5032700;28;20054;-68
2022/07/16 09:48:32;;;;;;;6.93;2.58;;;33.90;68.70;;;;;;5032748;28;20538;-68
2022/07/16 09:51:13;;;;;;;4.78;2.63;;;33.80;67.00;;;;;;5032862;28;20373;-67
2022/07/16 09:53:43;;;;;;;2.78;2.08;;;33.80;68.90;;;;;;5032446;28;20041;-68
2022/07/16 09:56:16;;;;;;;4.25;2.33;;;33.70;68.60;;;;;;5033660;28;20041;-67
2022/07/16 09:58:51;;;;;;;3.03;2.00;;;33.80;68.80;;;;;;5033994;28;20186;-67
2022/07/16 10:01:20;;;;;;;6.20;2.40;;;34.00;68.00;;;;;;5032405;28;20033;-66
2022/07/16 10:03:49;;;;;;;4.97;2.70;;;34.10;67.70;;;;;;5048898;28;20037;-69
2022/07/16 10:06:18;;;;;;;4.70;2.50;;;34.20;66.50;;;;;;5032443;28;20052;-67
2022/07/16 10:08:45;;;;;;;6.63;3.00;;;34.20;67.40;;;;;;5015752;28;20073;-71
2022/07/16 10:11:13;;;;;;;4.35;2.50;;;34.30;67.10;;;;;;5048234;28;20052;-67
2022/07/16 10:13:44;;;;;;;3.00;2.30;;;34.30;67.00;;;;;;5031809;28;20399;-70
2022/07/16 10:16:12;;;;;;;3.92;2.35;;;34.50;66.60;;;;;;5048154;28;20076;-67
2022/07/16 10:18:45;;;;;;;4.00;2.40;;;34.40;66.20;;;;;;5048402;28;20099;-69
2022/07/16 10:21:22;;;;;;;7.07;2.67;;;34.50;67.00;;;;;;5048158;28;20091;-67
2022/07/16 10:24:03;;;;;;;4.07;2.10;;;34.50;66.10;;;;;;5032822;28;20141;-72
2022/07/16 10:26:35;;;;;;;9.05;2.72;;;34.40;65.30;;;;;;5031650;28;20518;-67
2022/07/16 10:29:04;;;;;;;2.83;2.15;;;34.40;66.20;;;;;;5032921;28;20091;-66
2022/07/16 10:34:51;;;;;;;4.05;2.42;;;34.20;66.80;;;;;;5030619;28;20053;-67
2022/07/16 10:37:33;;;;;;;5.50;2.40;;;34.20;67.30;;;;;;5032717;28;20046;-67
2022/07/16 10:40:06;;;;;;;5.05;2.28;;;34.30;67.60;;;;;;5031923;28;20053;-67
2022/07/16 10:42:35;;;;;;;3.72;2.30;;;34.40;67.20;;;;;;5031384;28;20061;-69
2022/07/16 10:45:03;;;;;;;3.15;2.45;;;34.40;67.30;;;;;;5031470;28;20053;-70
2022/07/16 10:47:49;;;;;;;3.55;2.22;;;34.40;67.00;;;;;;5047585;28;20046;-66
2022/07/16 10:50:22;;;;;;;4.18;2.15;;;34.60;66.90;;;;;;5032273;28;20080;-66
2022/07/16 10:52:52;;;;;;;2.75;2.22;;;34.30;66.80;;;;;;5031374;28;20157;-66
2022/07/16 10:55:34;;;;;;;9.32;2.20;;;34.20;67.00;;;;;;5014820;28;20057;-66
2022/07/16 10:58:03;;;;;;;2.60;2.22;;;34.30;67.30;;;;;;5047409;28;20041;-66
2022/07/16 11:00:30;;;;;;;6.20;2.40;;;34.30;67.30;;;;;;5031240;28;20381;-67
2022/07/16 11:03:01;;;;;;;3.75;2.22;;;34.40;67.30;;;;;;5032072;28;20068;-71
2022/07/16 11:05:44;;;;;;;4.43;2.80;;;34.50;67.10;;;;;;5045539;28;20048;-68
2022/07/16 11:08:12;;;;;;;4.07;2.88;;;34.60;66.30;;;;;;5047179;28;20042;-67
2022/07/16 11:10:42;;;;;;;5.00;2.85;;;34.50;65.90;;;;;;5047270;28;20061;-66
2022/07/16 11:13:14;;;;;;;6.05;2.60;;;34.50;66.10;;;;;;5031215;28;20041;-67
2022/07/16 11:15:42;;;;;;;3.15;2.10;;;34.50;66.20;;;;;;5032116;28;20400;-66
2022/07/16 11:18:15;;;;;;;4.55;2.20;;;34.40;65.50;;;;;;5030178;28;20053;-67
2022/07/16 11:20:44;;;;;;;3.85;2.30;;;34.10;65.40;;;;;;5031034;28;20052;-67
2022/07/16 11:23:12;;;;;;;4.13;2.22;;;34.00;65.50;;;;;;5014516;28;20081;-67
2022/07/16 11:25:54;;;;;;;3.40;2.50;;;34.00;65.40;;;;;;5030932;28;20041;-69
2022/07/16 11:28:21;;;;;;;7.57;3.00;;;34.00;65.50;;;;;;5030715;28;20037;-67
2022/07/16 11:31:08;;;;;;;4.55;2.47;;;34.00;64.60;;;;;;5030391;28;20057;-69
2022/07/16 11:33:54;;;;;;;3.30;2.33;;;34.10;64.40;;;;;;5014113;28;20057;-66
2022/07/16 11:36:25;;;;;;;4.45;2.45;;;34.20;64.90;;;;;;5014232;28;20049;-68
2022/07/16 11:39:11;;;;;;;4.78;2.55;;;34.30;65.20;;;;;;5030465;28;20041;-70
2022/07/16 11:41:43;;;;;;;4.40;2.60;;;34.40;64.60;;;;;;5030953;28;20124;-69
2022/07/16 11:44:19;;;;;;;6.68;2.63;;;34.50;64.30;;;;;;5030202;28;20049;-67
2022/07/16 11:46:55;;;;;;;9.70;2.72;;;34.40;63.70;;;;;;5031426;28;20064;-66
2022/07/16 11:49:32;;;;;;;5.10;2.40;;;34.30;63.60;;;;;;5013774;28;20433;-69
2022/07/16 11:52:08;;;;;;;3.15;2.45;;;34.30;63.80;;;;;;5013912;28;20057;-69
2022/07/16 11:54:38;;;;;;;3.00;2.17;;;34.30;64.00;;;;;;5030149;28;20045;-69
2022/07/16 11:57:08;;;;;;;3.55;2.65;;;34.30;63.40;;;;;;5013084;28;20503;-70
2022/07/16 11:59:47;;;;;;;5.05;2.70;;;34.20;63.60;;;;;;5013997;28;20499;-69
2022/07/16 12:02:21;;;;;;;3.38;2.25;;;34.30;63.50;;;;;;5029999;28;20049;-67
2022/07/16 12:04:51;;;;;;;3.65;2.40;;;34.30;63.40;;;;;;5030722;28;20092;-67
2022/07/16 12:07:44;;;;;;;3.40;2.53;;;34.20;63.30;;;;;;5046634;28;20164;-69
2022/07/16 12:10:12;;;;;;;3.80;2.53;;;34.10;63.10;;;;;;5013216;28;20053;-68
2022/07/16 12:12:40;;;;;;;3.47;2.53;;;34.20;63.70;;;;;;5030914;28;20045;-66
2022/07/16 12:15:12;;;;;;;3.90;2.80;;;34.30;63.10;;;;;;5046617;28;20510;-67
2022/07/16 12:17:46;;;;;;;5.30;2.53;;;34.20;62.80;;;;;;5031048;28;20041;-67
2022/07/16 12:20:22;;;;;;;3.33;2.45;;;34.30;62.80;;;;;;5031334;28;20068;-67
2022/07/16 12:23:05;;;;;;;4.65;2.97;;;34.20;62.40;;;;;;5029549;28;20072;-66
2022/07/16 12:25:35;;;;;;;6.22;2.80;;;34.20;63.00;;;;;;5013615;28;20080;-67
2022/07/16 12:28:17;;;;;;;4.57;2.38;;;34.30;63.30;;;;;;5013015;28;20136;-66
2022/07/16 12:30:59;;;;;;;4.82;3.17;;;34.30;63.20;;;;;;5029491;28;21349;-67
2022/07/16 12:33:29;;;;;;;3.05;2.63;;;34.30;62.70;;;;;;5029344;28;20053;-66
2022/07/16 12:36:03;;;;;;;5.25;3.05;;;34.30;62.90;;;;;;5046110;28;20105;-67
2022/07/16 12:38:44;;;;;;;4.80;2.85;;;34.40;63.00;;;;;;5012563;28;20748;-67
2022/07/16 12:41:33;;;;;;;4.03;2.40;;;34.40;62.90;;;;;;5046132;28;20120;-67
2022/07/16 12:44:07;;;;;;;5.30;3.05;;;34.40;62.90;;;;;;5030549;28;20055;-67
2022/07/16 12:46:47;;;;;;;5.10;3.17;;;34.50;62.90;;;;;;5029753;28;20053;-66
2022/07/16 12:49:22;;;;;;;6.10;3.60;;;34.50;62.90;;;;;;5029429;28;20504;-67
2022/07/16 12:51:52;;;;;;;3.20;2.53;;;34.50;62.90;;;;;;5029048;28;20037;-66
2022/07/16 12:54:23;;;;;;;4.35;2.65;;;34.50;62.90;;;;;;5022470;28;20048;-69
2022/07/16 12:59:37;;;;;;;5.45;4.13;;;34.60;63.10;;;;;;5019926;28;20138;-66
2022/07/16 13:02:05;;;;;;;4.90;4.05;;;34.50;63.00;;;;;;5025138;28;20116;-67
2022/07/16 13:04:34;;;;;;;7.20;4.47;;;34.50;63.10;;;;;;5031492;28;20096;-68
2022/07/16 13:07:03;;;;;;;6.40;4.57;;;34.60;63.20;;;;;;5012608;28;20499;-67
2022/07/16 13:09:30;;;;;;;5.55;4.40;;;34.40;62.80;;;;;;5005817;28;20077;-68
2022/07/16 13:11:58;;;;;;;7.20;3.85;;;34.50;63.00;;;;;;5028478;28;20535;-67